createdAt,value
2023-04-19T00:00:11.177Z,24.0
2023-04-19T00:02:16.153Z,24.1
2023-04-19T00:04:11.283Z,24.3
2023-04-19T00:06:11.551Z,24.6
2023-04-19T00:08:11.198Z,24.9
2023-04-19T00:10:11.161Z,25.0
2023-04-19T00:12:11.285Z,25.2
2023-04-19T00:14:11.674Z,25.3
2023-04-19T00:16:11.275Z,24.8
2023-04-19T00:18:11.154Z,25.0
2023-04-19T00:20:11.211Z,24.8
2023-04-19T00:22:11.137Z,24.6
2023-04-19T00:24:11.350Z,24.8
2023-04-19T00:26:11.113Z,24.7
2023-04-19T00:28:11.643Z,24.9
2023-04-19T00:30:11.134Z,24.9
2023-04-19T00:32:11.410Z,25.1
2023-04-19T00:34:11.327Z,25.2
2023-04-19T00:36:11.337Z,25.6
2023-04-19T00:38:11.237Z,25.7
2023-04-19T00:40:11.140Z,25.7
2023-04-19T00:42:11.565Z,25.6
2023-04-19T00:44:11.160Z,25.8
2023-04-19T00:46:11.232Z,25.7
2023-04-19T00:48:11.161Z,26.2
2023-04-19T00:50:12.771Z,26.2
2023-04-19T00:52:13.626Z,25.7
2023-04-19T00:54:11.184Z,25.7
2023-04-19T00:56:11.159Z,26.0
2023-04-19T00:58:16.073Z,25.9
2023-04-19T01:00:11.208Z,26.4
2023-04-19T01:02:11.200Z,26.6
2023-04-19T01:04:11.270Z,26.6
2023-04-19T01:06:11.460Z,26.5
2023-04-19T01:08:11.189Z,26.7
2023-04-19T01:10:11.245Z,26.7
2023-04-19T01:12:11.156Z,26.6
2023-04-19T01:14:11.186Z,26.3
2023-04-19T01:16:11.297Z,26.5
2023-04-19T01:18:11.180Z,26.8
2023-04-19T01:20:11.175Z,26.3
2023-04-19T01:22:11.197Z,26.5
2023-04-19T01:24:11.331Z,26.3
2023-04-19T01:26:11.240Z,25.7
2023-04-19T01:28:11.197Z,25.5
2023-04-19T01:30:11.183Z,25.6
2023-04-19T01:32:11.201Z,25.7
2023-04-19T01:34:11.209Z,25.7
2023-04-19T01:36:11.245Z,25.9
2023-04-19T01:38:11.225Z,25.6
2023-04-19T01:41:11.225Z,25.6
2023-04-19T01:43:15.144Z,25.6
2023-04-19T01:45:11.202Z,25.7
2023-04-19T01:47:11.364Z,25.6
2023-04-19T01:49:11.240Z,25.5
2023-04-19T01:51:11.255Z,25.9
2023-04-19T01:53:11.252Z,26.0
2023-04-19T01:55:11.408Z,26.7
2023-04-19T01:57:11.308Z,26.6
2023-04-19T01:59:11.284Z,26.3
2023-04-19T02:01:11.303Z,26.0
2023-04-19T02:03:11.600Z,25.7
2023-04-19T02:05:11.398Z,25.3
2023-04-19T02:07:11.250Z,25.5
2023-04-19T02:09:11.320Z,25.3
2023-04-19T02:11:11.195Z,25.2
2023-04-19T02:13:11.203Z,25.2
2023-04-19T02:15:11.368Z,25.3
2023-04-19T02:17:11.206Z,25.0
2023-04-19T02:19:11.225Z,25.4
2023-04-19T02:21:11.335Z,25.4
2023-04-19T02:23:11.280Z,25.4
2023-04-19T02:25:13.951Z,25.4
2023-04-19T02:27:11.224Z,25.5
2023-04-19T02:29:11.364Z,25.2
2023-04-19T02:31:11.220Z,25.1
2023-04-19T02:33:11.206Z,24.9
2023-04-19T02:35:11.270Z,24.6
2023-04-19T02:37:11.176Z,25.0
2023-04-19T02:39:11.277Z,25.2
2023-04-19T02:41:11.314Z,25.4
2023-04-19T02:43:11.299Z,25.4
2023-04-19T02:45:11.255Z,25.2
2023-04-19T02:47:11.267Z,25.4
2023-04-19T02:49:11.238Z,25.6
2023-04-19T02:51:14.198Z,25.2
2023-04-19T02:53:11.229Z,25.2
2023-04-19T02:55:11.381Z,24.6
2023-04-19T02:57:11.288Z,24.7
2023-04-19T02:59:11.273Z,24.4
2023-04-19T03:01:11.285Z,24.8
2023-04-19T03:03:11.601Z,25.1
2023-04-19T03:05:11.308Z,25.6
2023-04-19T03:07:11.298Z,25.5
2023-04-19T03:09:11.574Z,25.6
2023-04-19T03:11:11.277Z,25.8
2023-04-19T03:13:11.305Z,26.1
2023-04-19T03:15:11.266Z,25.9
2023-04-19T03:17:11.324Z,26.0
2023-04-19T03:19:14.084Z,26.2
2023-04-19T03:21:11.280Z,26.4
2023-04-19T03:23:11.447Z,27.0
2023-04-19T03:25:11.239Z,27.5
2023-04-19T03:27:11.364Z,27.6
2023-04-19T03:29:11.247Z,27.6
2023-04-19T03:31:11.371Z,27.9
2023-04-19T03:35:20.772Z,28.3
2023-04-19T03:37:20.990Z,28.1
2023-04-19T03:39:20.723Z,27.8
2023-04-19T03:41:21.249Z,27.4
2023-04-19T03:43:20.799Z,27.4
2023-04-19T03:45:20.798Z,27.7
2023-04-19T03:47:20.794Z,27.4
2023-04-19T03:49:20.938Z,27.0
2023-04-19T03:51:20.732Z,27.5
2023-04-19T03:53:20.875Z,27.5
2023-04-19T03:55:21.213Z,27.5
2023-04-19T03:57:20.817Z,27.4
2023-04-19T03:59:20.772Z,27.8
2023-04-19T04:01:20.759Z,27.7
2023-04-19T04:03:21.005Z,27.5
2023-04-19T04:05:20.845Z,27.5
2023-04-19T04:07:20.935Z,27.6
2023-04-19T04:09:20.770Z,28.4
2023-04-19T04:11:20.808Z,28.3
2023-04-19T04:13:20.913Z,28.7
2023-04-19T04:15:20.887Z,29.3
2023-04-19T04:17:20.850Z,29.9
2023-04-19T04:19:23.236Z,29.5
2023-04-19T04:21:20.957Z,29.4
2023-04-19T04:23:20.792Z,29.0
2023-04-19T04:25:22.985Z,28.6
2023-04-19T04:27:20.918Z,28.9
2023-04-19T04:29:26.594Z,28.9
2023-04-19T04:31:20.761Z,28.6
2023-04-19T04:33:20.890Z,28.5
2023-04-19T04:35:20.931Z,28.9
2023-04-19T04:37:20.915Z,29.3
2023-04-19T04:39:20.842Z,29.6
2023-04-19T04:41:22.677Z,30.0
2023-04-19T04:43:23.533Z,30.1
2023-04-19T04:45:20.802Z,30.5
2023-04-19T04:47:26.108Z,30.5
2023-04-19T04:49:20.981Z,30.9
2023-04-19T04:51:20.997Z,30.6
2023-04-19T04:53:21.049Z,30.8
2023-04-19T04:55:20.782Z,30.8
2023-04-19T04:57:20.872Z,31.1
2023-04-19T04:59:20.822Z,31.2
2023-04-19T05:01:21.049Z,31.0
2023-04-19T05:03:20.921Z,31.1
2023-04-19T05:05:20.824Z,30.9
2023-04-19T05:07:20.931Z,30.7
2023-04-19T05:09:20.876Z,30.0
2023-04-19T05:11:20.914Z,29.9
2023-04-19T05:13:20.837Z,29.6
2023-04-19T05:15:20.885Z,29.3
2023-04-19T05:17:20.979Z,28.6
2023-04-19T05:19:21.000Z,28.4
2023-04-19T05:21:20.836Z,28.2
2023-04-19T05:23:20.928Z,28.4
2023-04-19T05:25:20.792Z,28.7
2023-04-19T05:27:20.849Z,29.2
2023-04-19T05:29:20.971Z,29.4
2023-04-19T05:31:21.064Z,29.5
2023-04-19T05:33:21.017Z,30.0
2023-04-19T05:35:21.548Z,29.6
2023-04-19T05:37:21.050Z,29.4
2023-04-19T05:39:20.857Z,29.3
2023-04-19T05:41:20.957Z,29.6
2023-04-19T05:43:21.030Z,29.5
2023-04-19T05:45:20.992Z,29.2
2023-04-19T05:47:21.075Z,29.2
2023-04-19T05:49:20.864Z,29.2
2023-04-19T05:51:20.877Z,29.3
2023-04-19T05:54:20.873Z,29.1
2023-04-19T05:56:21.026Z,29.3
2023-04-19T05:58:21.107Z,29.1
2023-04-19T06:00:21.009Z,29.0
2023-04-19T06:02:21.204Z,29.5
2023-04-19T06:04:23.834Z,29.4
2023-04-19T06:06:21.063Z,29.4
2023-04-19T06:08:20.891Z,29.4
2023-04-19T06:10:20.911Z,30.0
2023-04-19T06:12:20.896Z,30.0
2023-04-19T06:14:20.886Z,30.0
2023-04-19T06:16:20.904Z,30.2
2023-04-19T06:18:20.954Z,30.8
2023-04-19T06:20:20.925Z,31.5
2023-04-19T06:22:20.851Z,31.7
2023-04-19T06:24:20.894Z,31.1
2023-04-19T06:26:20.902Z,31.1
2023-04-19T06:28:20.981Z,30.8
2023-04-19T06:30:21.552Z,30.5
2023-04-19T06:32:20.936Z,30.1
2023-04-19T06:34:20.903Z,30.4
2023-04-19T06:36:20.875Z,30.3
2023-04-19T06:38:21.012Z,30.1
2023-04-19T06:40:21.020Z,30.0
2023-04-19T06:42:20.968Z,30.1
2023-04-19T06:44:20.976Z,30.6
2023-04-19T06:46:21.370Z,30.2
2023-04-19T06:48:20.878Z,30.1
2023-04-19T06:50:21.250Z,29.9
2023-04-19T06:52:25.756Z,29.8
2023-04-19T06:54:20.880Z,30.0
2023-04-19T06:56:20.888Z,29.7
2023-04-19T06:58:20.941Z,29.5
2023-04-19T07:00:21.177Z,29.8
2023-04-19T07:02:20.931Z,29.5
2023-04-19T07:04:21.421Z,29.6
2023-04-19T07:06:20.861Z,29.3
2023-04-19T07:08:20.984Z,29.0
2023-04-19T07:10:21.220Z,28.6
2023-04-19T07:12:25.766Z,28.7
2023-04-19T07:14:20.888Z,28.6
2023-04-19T07:16:20.889Z,28.0
2023-04-19T07:18:21.361Z,27.8
2023-04-19T07:20:20.870Z,27.3
2023-04-19T07:22:20.849Z,27.6
2023-04-19T07:24:20.861Z,27.9
2023-04-19T07:26:20.872Z,27.4
2023-04-19T07:28:20.871Z,27.3
2023-04-19T07:30:20.875Z,27.9
2023-04-19T07:32:21.025Z,28.0
2023-04-19T07:34:23.218Z,27.5
2023-04-19T07:36:20.973Z,27.5
2023-04-19T07:38:20.900Z,27.3
2023-04-19T07:40:20.908Z,27.0
2023-04-19T07:42:20.865Z,27.1
2023-04-19T07:44:20.908Z,26.8
2023-04-19T07:46:20.967Z,26.8
2023-04-19T07:48:20.987Z,26.8
2023-04-19T07:50:23.126Z,27.0
2023-04-19T07:52:20.882Z,26.9
2023-04-19T07:54:20.965Z,26.9
2023-04-19T07:56:20.948Z,27.2
2023-04-19T07:58:21.249Z,27.0
2023-04-19T08:00:20.925Z,27.0
2023-04-19T08:02:21.062Z,26.9
2023-04-19T08:04:21.985Z,27.0
2023-04-19T08:06:21.092Z,27.1
2023-04-19T08:08:20.998Z,27.2
2023-04-19T08:10:22.307Z,27.4
2023-04-19T08:14:32.550Z,27.3
2023-04-19T08:16:46.642Z,27.7
2023-04-19T08:18:20.951Z,27.8
2023-04-19T08:20:20.989Z,27.7
2023-04-19T08:22:22.151Z,27.5
2023-04-19T08:24:20.901Z,27.5
2023-04-19T08:26:21.093Z,27.5
2023-04-19T08:28:20.986Z,27.5
2023-04-19T08:30:20.971Z,27.2
2023-04-19T08:32:21.000Z,27.3
2023-04-19T08:34:20.951Z,26.9
2023-04-19T08:36:28.678Z,27.4
2023-04-19T08:38:20.967Z,27.9
2023-04-19T08:40:20.948Z,27.8
2023-04-19T08:42:33.203Z,28.0
2023-04-19T08:44:32.627Z,28.0
2023-04-19T08:46:24.078Z,27.8
2023-04-19T08:48:20.968Z,28.0
2023-04-19T08:50:32.447Z,27.8
2023-04-19T08:52:24.417Z,27.8
2023-04-19T08:54:20.930Z,27.5
2023-04-19T08:56:28.035Z,27.2
2023-04-19T08:58:30.752Z,27.5
2023-04-19T09:00:21.001Z,27.4
2023-04-19T09:02:21.066Z,27.5
2023-04-19T09:04:36.194Z,27.4
2023-04-19T09:06:21.056Z,27.5
2023-04-19T09:08:20.987Z,27.7
2023-04-19T09:10:20.936Z,27.9
2023-04-19T09:12:20.973Z,27.9
2023-04-19T09:14:20.991Z,27.9
2023-04-19T09:16:21.029Z,28.1
2023-04-19T09:18:21.039Z,27.9
2023-04-19T09:20:30.062Z,28.0
2023-04-19T09:22:20.950Z,27.8
2023-04-19T09:24:21.090Z,27.9
2023-04-19T09:26:23.453Z,28.0
2023-04-19T09:28:20.955Z,27.9
2023-04-19T09:30:29.904Z,28.1
2023-04-19T09:32:21.226Z,28.1
2023-04-19T09:34:20.983Z,28.5
2023-04-19T09:36:21.063Z,28.1
2023-04-19T09:39:21.031Z,28.2
2023-04-19T09:40:21.726Z,28.2
2023-04-19T09:45:30.188Z,27.9
2023-04-19T09:49:27.823Z,28.1
2023-04-19T09:53:21.161Z,28.3
2023-04-19T09:55:26.987Z,28.4
2023-04-19T09:59:21.487Z,28.1
2023-04-19T10:01:21.108Z,28.0
2023-04-19T10:05:21.796Z,27.9
2023-04-19T10:09:21.078Z,28.0
2023-04-19T10:13:23.213Z,27.8
2023-04-19T10:15:21.102Z,27.7
2023-04-19T10:16:39.448Z,28.0
2023-04-19T10:18:39.452Z,27.6
2023-04-19T10:20:39.401Z,27.7
2023-04-19T10:22:39.396Z,27.9
2023-04-19T10:24:39.496Z,27.7
2023-04-19T10:26:39.637Z,27.8
2023-04-19T10:28:39.416Z,27.8
2023-04-19T10:30:44.360Z,27.9
2023-04-19T10:32:39.760Z,27.8
2023-04-19T10:34:39.427Z,27.7
2023-04-19T10:36:43.497Z,27.8
2023-04-19T10:38:39.562Z,27.4
2023-04-19T10:40:40.695Z,27.4
2023-04-19T10:42:42.426Z,27.5
2023-04-19T10:44:39.602Z,27.7
2023-04-19T10:47:39.592Z,27.8
2023-04-19T10:49:39.727Z,28.0
2023-04-19T10:51:44.470Z,27.6
2023-04-19T10:53:39.637Z,28.0
2023-04-19T10:55:39.496Z,28.0
2023-04-19T10:57:39.474Z,28.4
2023-04-19T10:59:43.776Z,28.4
2023-04-19T11:01:39.884Z,28.5
2023-04-19T11:03:39.598Z,28.5
2023-04-19T11:05:42.017Z,28.2
2023-04-19T11:07:39.494Z,28.4
2023-04-19T11:09:39.630Z,28.6
2023-04-19T11:11:39.593Z,28.3
2023-04-19T11:13:39.621Z,27.8
2023-04-19T11:15:42.568Z,27.6
2023-04-19T11:17:39.690Z,27.4
2023-04-19T11:19:39.736Z,27.7
2023-04-19T11:21:39.525Z,27.5
2023-04-19T11:23:39.544Z,27.4
2023-04-19T11:25:39.511Z,27.7
2023-04-19T11:27:41.738Z,27.8
2023-04-19T11:29:39.544Z,27.6
2023-04-19T11:31:39.592Z,27.6
2023-04-19T11:33:42.468Z,27.7
2023-04-19T11:35:41.994Z,27.8
2023-04-19T11:37:39.538Z,27.9
2023-04-19T11:39:39.637Z,27.5
2023-04-19T11:41:44.384Z,27.6
2023-04-19T11:43:40.974Z,27.4
2023-04-19T11:45:40.382Z,27.4
2023-04-19T11:47:39.639Z,27.4
2023-04-19T11:49:39.672Z,19.5
2023-04-19T11:51:39.509Z,26.0
2023-04-19T11:53:42.234Z,26.2
2023-04-19T11:55:39.578Z,26.5
2023-04-19T11:57:41.526Z,25.6
2023-04-19T11:59:39.515Z,26.6
2023-04-19T12:01:39.598Z,27.4
2023-04-19T12:03:39.857Z,26.9
2023-04-19T12:05:39.657Z,27.4
2023-04-19T12:07:39.491Z,27.4
2023-04-19T12:09:39.547Z,27.7
2023-04-19T12:11:39.547Z,38.5
2023-04-19T12:13:39.529Z,34.5
2023-04-19T12:15:39.471Z,30.7
2023-04-19T12:17:47.696Z,27.4
2023-04-19T12:19:39.532Z,26.3
2023-04-19T12:21:44.385Z,30.0
2023-04-19T12:23:39.489Z,25.5
2023-04-19T12:25:44.450Z,28.4
2023-04-19T12:27:39.511Z,27.8
2023-04-19T12:29:39.481Z,26.5
2023-04-19T12:31:42.238Z,27.0
2023-04-19T12:33:39.685Z,27.1
2023-04-19T12:35:39.529Z,27.8
2023-04-19T12:37:39.607Z,27.8
2023-04-19T12:39:39.844Z,27.3
2023-04-19T12:41:39.626Z,27.4
2023-04-19T12:43:39.987Z,26.8
2023-04-19T12:45:39.798Z,27.4
2023-04-19T12:47:39.576Z,28.1
2023-04-19T12:49:39.592Z,27.7
2023-04-19T12:51:39.594Z,27.9
2023-04-19T12:53:39.709Z,27.9
2023-04-19T12:55:39.589Z,27.6
2023-04-19T12:57:39.613Z,27.5
2023-04-19T12:59:39.628Z,27.7
2023-04-19T13:01:42.226Z,27.5
2023-04-19T13:03:39.671Z,27.2
2023-04-19T13:05:42.294Z,27.3
2023-04-19T13:07:39.609Z,27.3
2023-04-19T13:09:43.839Z,27.3
2023-04-19T13:11:39.579Z,27.1
2023-04-19T13:13:39.518Z,27.2
2023-04-19T13:15:39.705Z,27.3
2023-04-19T13:17:42.244Z,27.2
2023-04-19T13:19:42.219Z,27.2
2023-04-19T13:21:39.596Z,27.3
2023-04-19T13:23:39.494Z,27.5
2023-04-19T13:25:39.534Z,27.2
2023-04-19T13:27:39.863Z,27.5
2023-04-19T13:29:39.488Z,27.4
2023-04-19T13:31:39.533Z,27.4
2023-04-19T13:33:39.558Z,27.1
2023-04-19T13:35:39.493Z,27.0
2023-04-19T13:37:46.165Z,27.2
2023-04-19T13:39:39.725Z,27.0
2023-04-19T13:41:39.533Z,27.0
2023-04-19T13:43:39.614Z,27.5
2023-04-19T13:45:39.574Z,27.4
2023-04-19T13:47:39.656Z,27.0
2023-04-19T13:49:41.352Z,27.3
2023-04-19T13:51:49.669Z,27.3
2023-04-19T13:53:39.511Z,27.3
2023-04-19T13:55:39.577Z,27.5
2023-04-19T13:57:39.754Z,27.8
2023-04-19T13:59:39.753Z,27.4
2023-04-19T14:01:39.773Z,27.6
2023-04-19T14:03:39.701Z,27.9
2023-04-19T14:05:39.542Z,28.2
2023-04-19T14:07:39.539Z,28.1
2023-04-19T14:09:39.640Z,27.9
2023-04-19T14:11:39.716Z,28.2
2023-04-19T14:13:39.625Z,27.9
2023-04-19T14:15:39.536Z,27.9
2023-04-19T14:17:39.619Z,28.2
2023-04-19T14:19:39.580Z,28.7
2023-04-19T14:21:39.582Z,29.0
2023-04-19T14:24:42.740Z,29.0
2023-04-19T14:26:39.639Z,28.9
2023-04-19T14:28:39.621Z,29.0
2023-04-19T14:30:39.570Z,29.2
2023-04-19T14:32:39.773Z,28.9
2023-04-19T14:34:39.542Z,29.1
2023-04-19T14:36:39.570Z,29.4
2023-04-19T14:38:39.601Z,28.9
2023-04-19T14:40:39.655Z,29.2
2023-04-19T14:42:39.681Z,29.1
2023-04-19T14:44:43.385Z,28.9
2023-04-19T14:46:44.456Z,29.3
2023-04-19T14:48:39.552Z,29.2
2023-04-19T14:50:39.645Z,28.7
2023-04-19T14:52:43.277Z,28.8
2023-04-19T14:54:39.590Z,28.9
2023-04-19T14:56:39.585Z,28.5
2023-04-19T14:58:39.981Z,28.7
2023-04-19T15:00:42.285Z,28.8
2023-04-19T15:02:39.716Z,28.8
2023-04-19T15:04:41.260Z,28.5
2023-04-19T15:06:39.611Z,28.3
2023-04-19T15:08:39.596Z,28.7
2023-04-19T15:10:39.592Z,28.9
2023-04-19T15:12:39.598Z,29.4
2023-04-19T15:14:39.816Z,29.7
2023-04-19T15:16:39.665Z,29.9
2023-04-19T15:18:39.736Z,29.8
2023-04-19T15:20:39.556Z,29.6
2023-04-19T15:22:39.630Z,29.1
2023-04-19T15:24:44.522Z,29.0
2023-04-19T15:26:44.321Z,28.9
2023-04-19T15:28:39.610Z,28.9
2023-04-19T15:30:42.194Z,27.5
2023-04-19T15:32:40.398Z,24.0
2023-04-19T15:34:39.651Z,21.5
2023-04-19T15:36:39.864Z,26.4
2023-04-19T15:38:40.675Z,26.7
2023-04-19T15:40:39.641Z,28.2
2023-04-19T15:42:39.673Z,27.7
2023-04-19T15:44:40.621Z,27.6
2023-04-19T15:46:39.873Z,26.9
2023-04-19T15:48:39.745Z,28.0
2023-04-19T15:50:40.389Z,28.3
2023-04-19T15:52:39.668Z,28.6
2023-04-19T15:54:39.996Z,28.2
2023-04-19T15:56:39.623Z,29.0
2023-04-19T15:58:40.164Z,28.9
2023-04-19T16:00:39.717Z,23.0
2023-04-19T16:02:39.957Z,30.7
2023-04-19T16:04:43.617Z,29.0
2023-04-19T16:06:39.827Z,26.7
2023-04-19T16:08:39.914Z,26.4
2023-04-19T16:10:39.853Z,26.8
2023-04-19T16:12:39.715Z,26.9
2023-04-19T16:14:39.799Z,27.9
2023-04-19T16:16:39.769Z,27.3
2023-04-19T16:18:39.814Z,26.7
2023-04-19T16:20:51.666Z,26.7
2023-04-19T16:22:51.572Z,27.3
2023-04-19T16:24:51.708Z,26.8
2023-04-19T16:26:51.572Z,26.9
2023-04-19T16:28:51.576Z,26.3
2023-04-19T16:30:51.633Z,26.5
2023-04-19T16:32:51.637Z,26.8
2023-04-19T16:34:54.633Z,26.9
2023-04-19T16:36:51.651Z,26.5
2023-04-19T16:38:51.574Z,26.7
2023-04-19T16:40:51.740Z,26.7
2023-04-19T16:42:51.760Z,26.8
2023-04-19T16:44:51.642Z,26.8
2023-04-19T16:46:51.809Z,27.1
2023-04-19T16:48:51.673Z,27.3
2023-04-19T16:50:51.656Z,26.9
2023-04-19T16:52:51.747Z,26.8
2023-04-19T16:54:51.640Z,26.8
2023-04-19T16:56:51.644Z,26.8
2023-04-19T16:58:51.751Z,26.7
2023-04-19T17:00:51.722Z,26.6
2023-04-19T17:02:51.714Z,26.3
2023-04-19T17:04:51.763Z,26.2
2023-04-19T17:06:51.675Z,26.9
2023-04-19T17:08:51.621Z,27.0
2023-04-19T17:10:51.767Z,27.1
2023-04-19T17:12:51.642Z,26.9
2023-04-19T17:14:56.504Z,26.7
2023-04-19T17:16:52.060Z,26.9
2023-04-19T17:18:51.568Z,27.0
2023-04-19T17:20:51.624Z,26.7
2023-04-19T17:22:56.504Z,26.3
2023-04-19T17:24:51.654Z,26.5
2023-04-19T17:26:51.604Z,26.4
2023-04-19T17:28:51.677Z,26.6
2023-04-19T17:30:56.567Z,26.7
2023-04-19T17:32:51.703Z,26.6
2023-04-19T17:34:51.675Z,26.5
2023-04-19T17:36:51.814Z,27.1
2023-04-19T17:38:51.637Z,27.0
2023-04-19T17:40:51.724Z,27.1
2023-04-19T17:42:51.692Z,27.0
2023-04-19T17:44:51.668Z,27.1
2023-04-19T17:46:51.694Z,26.6
2023-04-19T17:48:51.823Z,26.4
2023-04-19T17:50:51.670Z,26.6
2023-04-19T17:52:51.635Z,26.7
2023-04-19T17:54:51.710Z,26.6
2023-04-19T17:56:51.792Z,26.5
2023-04-19T17:58:51.673Z,26.7
2023-04-19T18:00:51.617Z,26.9
2023-04-19T18:02:51.872Z,27.1
2023-04-19T18:04:52.019Z,32.5
2023-04-19T18:06:51.750Z,28.3
2023-04-19T18:08:52.337Z,28.3
2023-04-19T18:10:51.696Z,27.1
2023-04-19T18:12:51.716Z,27.5
2023-04-19T18:14:51.746Z,28.8
2023-04-19T18:16:54.149Z,27.9
2023-04-19T18:18:53.670Z,28.0
2023-04-19T18:20:51.933Z,27.1
2023-04-19T18:22:51.689Z,26.1
2023-04-19T18:24:51.746Z,26.7
2023-04-19T18:26:51.772Z,27.6
2023-04-19T18:28:52.213Z,28.1
2023-04-19T18:30:51.988Z,27.8
2023-04-19T18:32:54.837Z,28.1
2023-04-19T18:34:51.809Z,28.5
2023-04-19T18:36:51.770Z,28.4
2023-04-19T18:38:51.925Z,28.3
2023-04-19T18:40:51.725Z,27.9
2023-04-19T18:42:51.773Z,28.0
2023-04-19T18:44:54.270Z,28.3
2023-04-19T18:47:52.219Z,28.8
2023-04-19T18:50:04.356Z,28.8
2023-04-19T18:51:54.362Z,29.0
2023-04-19T18:53:51.976Z,29.3
2023-04-19T18:55:51.767Z,29.1
2023-04-19T18:57:51.699Z,29.6
2023-04-19T18:59:52.035Z,29.6
2023-04-19T19:01:54.492Z,29.5
2023-04-19T19:04:10.648Z,29.5
2023-04-19T19:05:52.114Z,29.3
2023-04-19T19:07:51.949Z,29.3
2023-04-19T19:09:56.159Z,29.0
2023-04-19T19:11:56.145Z,29.1
2023-04-19T19:13:51.728Z,28.9
2023-04-19T19:15:51.779Z,28.9
2023-04-19T19:17:51.777Z,28.7
2023-04-19T19:19:51.789Z,29.3
2023-04-19T19:21:51.777Z,29.5
2023-04-19T19:23:57.749Z,29.4
2023-04-19T19:25:57.298Z,29.2
2023-04-19T19:29:51.698Z,28.9
2023-04-19T19:31:51.777Z,29.0
2023-04-19T19:34:08.788Z,28.5
2023-04-19T19:35:51.873Z,28.6
2023-04-19T19:37:51.882Z,29.0
2023-04-19T19:39:52.298Z,29.4
2023-04-19T19:42:05.229Z,29.4
2023-04-19T19:43:51.791Z,29.2
2023-04-19T19:45:51.753Z,29.0
2023-04-19T19:47:52.107Z,28.7
2023-04-19T19:50:31.347Z,28.4
2023-04-19T19:51:57.524Z,28.0
2023-04-19T19:53:51.742Z,27.7
2023-04-19T19:55:55.926Z,28.3
2023-04-19T19:59:56.321Z,27.6
2023-04-19T20:01:51.837Z,27.3
2023-04-19T20:03:52.140Z,27.4
2023-04-19T20:05:52.242Z,27.6
2023-04-19T20:09:51.856Z,28.0
2023-04-19T20:11:54.777Z,28.1
2023-04-19T20:13:52.267Z,28.2
2023-04-19T20:15:51.804Z,28.5
2023-04-19T20:17:51.809Z,28.9
2023-04-19T20:19:51.882Z,28.4
2023-04-19T20:21:51.856Z,28.5
2023-04-19T20:23:51.752Z,28.7
2023-04-19T20:25:52.115Z,28.8
2023-04-19T20:27:51.750Z,28.5
2023-04-19T20:29:52.161Z,28.7
2023-04-19T20:31:51.988Z,28.3
2023-04-19T20:33:51.751Z,28.8
2023-04-19T20:35:51.858Z,28.5
2023-04-19T20:37:51.979Z,28.1
2023-04-19T20:39:51.817Z,28.1
2023-04-19T20:41:51.816Z,28.6
2023-04-19T20:43:51.877Z,28.6
2023-04-19T20:45:52.123Z,28.5
2023-04-19T20:47:51.805Z,28.5
2023-04-19T20:49:54.728Z,28.5
2023-04-19T20:51:51.870Z,29.0
2023-04-19T20:53:51.823Z,28.6
2023-04-19T20:55:51.780Z,28.1
2023-04-19T20:57:54.682Z,28.2
2023-04-19T20:59:51.928Z,28.2
2023-04-19T21:01:51.762Z,28.7
2023-04-19T21:03:57.049Z,28.6
2023-04-19T21:05:51.959Z,28.6
2023-04-19T21:07:51.752Z,28.3
2023-04-19T21:09:51.808Z,28.2
2023-04-19T21:11:51.771Z,28.0
2023-04-19T21:13:51.844Z,27.8
2023-04-19T21:15:51.921Z,27.5
2023-04-19T21:17:51.811Z,27.0
2023-04-19T21:19:51.807Z,27.2
2023-04-19T21:21:51.812Z,27.4
2023-04-19T21:23:51.979Z,27.2
2023-04-19T21:25:52.007Z,27.1
2023-04-19T21:27:51.825Z,27.0
2023-04-19T21:29:51.893Z,27.2
2023-04-19T21:31:51.958Z,27.3
2023-04-19T21:33:51.863Z,27.1
2023-04-19T21:35:51.811Z,27.4
2023-04-19T21:37:51.778Z,27.5
2023-04-19T21:39:51.988Z,27.4
2023-04-19T21:41:51.857Z,27.1
2023-04-19T21:43:51.829Z,26.9
2023-04-19T21:45:52.072Z,27.0
2023-04-19T21:47:51.872Z,26.9
2023-04-19T21:49:55.120Z,27.3
2023-04-19T21:51:52.709Z,27.1
2023-04-19T21:53:52.034Z,27.6
2023-04-19T21:55:51.867Z,27.9
2023-04-19T21:57:51.805Z,27.8
2023-04-19T21:59:52.044Z,27.8
2023-04-19T22:01:53.763Z,27.6
2023-04-19T22:03:52.071Z,27.4
2023-04-19T22:05:51.924Z,27.2
2023-04-19T22:07:52.127Z,27.6
2023-04-19T22:09:51.812Z,27.6
2023-04-19T22:11:51.819Z,27.6
2023-04-19T22:13:51.879Z,27.3
2023-04-19T22:15:51.883Z,27.2
2023-04-19T22:17:51.938Z,27.6
2023-04-19T22:19:51.922Z,27.5
2023-04-19T22:21:51.851Z,27.6
2023-04-19T22:23:54.219Z,27.7
2023-04-19T22:26:51.859Z,27.8
2023-04-19T22:28:51.958Z,27.8
2023-04-19T22:30:51.862Z,27.5
2023-04-19T22:34:54.749Z,27.0
2023-04-19T22:36:56.498Z,27.8
2023-04-19T22:38:51.798Z,28.8
2023-04-19T22:40:54.408Z,27.4
2023-04-19T22:44:51.886Z,28.3
2023-04-19T22:46:51.946Z,28.3
2023-04-19T22:48:51.875Z,28.9
2023-04-19T22:50:13.494Z,28.9
2023-04-19T22:52:13.572Z,28.7
2023-04-19T22:54:13.625Z,29.3
2023-04-19T22:56:13.602Z,29.1
2023-04-19T22:58:22.832Z,29.8
2023-04-19T23:00:18.343Z,28.7
2023-04-19T23:02:13.562Z,28.6
2023-04-19T23:04:15.850Z,28.5
2023-04-19T23:06:13.517Z,28.5
2023-04-19T23:08:13.570Z,28.7
2023-04-19T23:10:13.507Z,28.6
2023-04-19T23:12:13.513Z,28.4
2023-04-19T23:14:13.571Z,28.4
2023-04-19T23:16:15.110Z,28.3
2023-04-19T23:18:13.529Z,28.1
2023-04-19T23:20:13.504Z,27.5
2023-04-19T23:22:13.583Z,27.5
2023-04-19T23:24:13.703Z,27.5
2023-04-19T23:26:13.507Z,27.8
2023-04-19T23:28:13.787Z,27.7
2023-04-19T23:30:13.533Z,27.9
2023-04-19T23:32:13.517Z,27.9
2023-04-19T23:34:13.678Z,28.2
2023-04-19T23:36:13.489Z,28.0
2023-04-19T23:38:13.500Z,27.8
2023-04-19T23:40:13.538Z,27.7
2023-04-19T23:43:13.568Z,27.8
2023-04-19T23:44:15.940Z,27.8
2023-04-19T23:47:13.694Z,27.8
2023-04-19T23:49:13.511Z,27.5
2023-04-19T23:51:13.503Z,27.8
2023-04-19T23:53:13.592Z,27.5
2023-04-19T23:55:18.816Z,27.1
2023-04-19T23:57:13.656Z,27.1
2023-04-19T23:59:13.557Z,26.8
